• Join FlightAware (Why Join?)
  • Login
  • US Flag 
04:13PM EDT


 

Airport Tracker/Info


-or-


 

Live Flight TrackerFlight Track Log ✈ ASA664 ✈ 09-May-2013 ✈ KSEA - KDFW

Flight Track Log - Related Links

Times and Time Zones

All times are in EDT time to prevent confusion due to time zone crossing. See the ASA664 flight status page for this flight to view local times or setup timezone preferences in your user account.

Time Position Orientation Groundspeed Altitude Reporting Facility
EDT Latitude Longitude Course Direction KTS MPH feet Rate Location/Type
04:03PM 47.4233 -122.3072 181° South 189 217 1,600  Level Seattle Center
04:04PM 47.3614 -122.3089 181° South 203 234 3,100 1,620 Climbing Seattle Center
04:05PM 47.2817 -122.3092 180° South 261 300 5,200 2,160 Climbing Seattle Center
04:06PM 47.2047 -122.3000 175° South 277 319 7,500 2,280 Climbing Seattle Center
04:07PM 47.1319 -122.2606 160° South 279 321 9,900 2,040 Climbing Seattle Center
04:08PM 47.0564 -122.2192 160° South 288 331 11,700 1,860 Climbing Seattle Center
04:09PM 46.9661 -122.1717 160° South 320 368 13,700 1,920 Climbing Seattle Center
04:10PM 46.8778 -122.1250 160° South 336 387 15,700 1,980 Climbing Seattle Center
04:12PM 46.7850 -122.0761 160° South 353 406 17,800 1,800 Climbing Seattle Center
04:13PM 46.6894 -122.0297 162° South 360 414 19,400 1,560 Climbing Seattle Center
04:14PM 46.6031 -121.9569 150° Southeast 370 426 21,000 1,500 Climbing Seattle Center
04:15PM 46.5514 -121.8208 119° Southeast 386 444 22,500 1,440 Climbing Seattle Center
04:16PM 46.4969 -121.6853 120° Southeast 392 451 24,000 1,320 Climbing Seattle Center
04:17PM 46.4444 -121.5519 120° Southeast 401 461 25,300 1,320 Climbing Seattle Center
04:18PM 46.3761 -121.3825 120° Southeast 407 468 26,800 1,260 Climbing Seattle Center
04:19PM 46.3178 -121.2375 120° Southeast 414 476 27,900 1,020 Climbing Seattle Center
04:20PM 46.2578 -121.0881 120° Southeast 426 490 28,900 900 Climbing Seattle Center
04:21PM 46.1972 -120.9386 120° Southeast 431 496 29,800 780 Climbing Seattle Center
04:22PM 46.1339 -120.7850 121° Southeast 442 509 30,600 780 Climbing Seattle Center
04:23PM 46.0703 -120.6317 121° Southeast 446 513 31,400 780 Climbing Seattle Center
04:24PM 46.0056 -120.4767 121° Southeast 450 518 32,200 660 Climbing Seattle Center
04:25PM 45.9406 -120.3208 121° Southeast 455 524 32,800 360 Climbing Seattle Center
04:26PM 45.8739 -120.1642 121° Southeast 457 526 33,000 60 Climbing Seattle Center
04:27PM 45.8086 -120.0078 121° Southeast 458 527 33,000  Level Seattle Center
04:28PM 45.7419 -119.8522 122° Southeast 458 527 33,000  Level Seattle Center
04:29PM 45.6756 -119.6972 121° Southeast 456 525 33,000  Level Seattle Center
04:30PM 45.6097 -119.5433 121° Southeast 455 524 33,000  Level Seattle Center
04:31PM 45.5314 -119.3606 121° Southeast 450 518 33,000  Level Seattle Center
04:32PM 45.4647 -119.2078 122° Southeast 451 519 33,000  Level Seattle Center
04:33PM 45.3989 -119.0553 122° Southeast 451 519 33,000  Level Seattle Center
04:34PM 45.3317 -118.9033 122° Southeast 452 520 33,000  Level Seattle Center
04:35PM 45.2633 -118.7514 123° Southeast 454 522 33,000  Level Seattle Center
04:36PM 45.1969 -118.5989 122° Southeast 453 521 33,000  Level Seattle Center
04:37PM 45.1281 -118.4475 123° Southeast 456 525 33,000  Level Seattle Center
04:38PM 45.0600 -118.2928 122° Southeast 455 524 33,000  Level Seattle Center
04:39PM 44.9836 -118.1253 123° Southeast 454 522 33,000  Level Seattle Center
04:40PM 44.9189 -117.9808 122° Southeast 455 524 33,000  Level Seattle Center
04:41PM 44.8517 -117.8372 123° Southeast 458 527 33,000  Level Seattle Center
04:41PM 44.8297 -117.7894 123° Southeast 457 526 33,000  Level Salt Lake Center
04:42PM 44.7647 -117.6447 122° Southeast 458 527 33,000  Level Salt Lake Center
04:43PM 44.6892 -117.4750 122° Southeast 460 529 33,000  Level Salt Lake Center
04:44PM 44.6553 -117.3700 114° Southeast 460 529 33,000  Level Seattle Center
04:45PM 44.6019 -117.1861 112° Southeast 456 525 33,000  Level Seattle Center
04:45PM 44.5858 -117.1342 114° Southeast 458 527 33,000  Level Salt Lake Center
04:46PM 44.5372 -116.9781 114° Southeast 458 527 33,000  Level Salt Lake Center
04:47PM 44.4906 -116.8231 113° Southeast 453 521 33,000  Level Salt Lake Center
04:48PM 44.4336 -116.6428 114° Southeast 454 522 33,000  Level Salt Lake Center
04:49PM 44.3850 -116.4889 114° Southeast 454 522 33,000  Level Salt Lake Center
04:51PM 44.3283 -116.3108 114° Southeast 454 522 33,000  Level Salt Lake Center
04:52PM 44.2925 -116.1522 107° East 455 524 33,000  Level Salt Lake Center
04:53PM 44.2553 -115.9664 106° East 451 519 33,000  Level Salt Lake Center
04:54PM 44.2219 -115.8053 106° East 452 520 33,000  Level Salt Lake Center
04:55PM 44.1467 -115.6339 121° Southeast 469 540 33,000  Level Salt Lake Center
04:56PM 44.0733 -115.4972 127° Southeast 462 532 33,000  Level Salt Lake Center
04:57PM 43.9864 -115.3375 127° Southeast 462 532 33,000  Level Salt Lake Center
04:58PM 43.9131 -115.2011 127° Southeast 462 532 33,000  Level Salt Lake Center
04:59PM 43.8392 -115.0664 127° Southeast 460 529 33,000  Level Salt Lake Center
05:00PM 43.7544 -114.9075 126° Southeast 458 527 33,000  Level Salt Lake Center
05:01PM 43.6808 -114.7714 127° Southeast 461 531 33,000  Level Salt Lake Center
05:02PM 43.5900 -114.6178 129° Southeast 461 531 33,000  Level Salt Lake Center
05:03PM 43.5122 -114.4869 129° Southeast 460 529 33,000  Level Salt Lake Center
05:04PM 43.4178 -114.3403 132° Southeast 460 529 33,000  Level Salt Lake Center
05:05PM 43.3331 -114.2200 134° Southeast 457 526 33,000  Level Salt Lake Center
05:06PM 43.2467 -114.1042 136° Southeast 455 524 33,000  Level Salt Lake Center
05:07PM 43.1528 -113.9858 137° Southeast 451 519 33,000  Level Salt Lake Center
05:08PM 43.0442 -113.8964 149° Southeast 455 524 33,000  Level Salt Lake Center
05:09PM 42.9175 -113.7889 148° Southeast 460 529 33,100 240 Climbing Salt Lake Center
05:10PM 42.8142 -113.7006 148° Southeast 458 527 33,600 480 Climbing Salt Lake Center
05:11PM 42.6975 -113.5947 146° Southeast 453 521 34,100 480 Climbing Salt Lake Center
05:12PM 42.6067 -113.4892 139° Southeast 452 520 34,600 420 Climbing Salt Lake Center
05:13PM 42.5397 -113.3478 123° Southeast 446 513 35,000 180 Climbing Salt Lake Center
05:14PM 42.4947 -113.1975 112° Southeast 434 499 35,000  Level Salt Lake Center
05:15PM 42.4517 -113.0439 111° Southeast 437 503 35,000  Level Salt Lake Center
05:16PM 42.3922 -112.8633 114° Southeast 438 504 35,000  Level Salt Lake Center
05:17PM 42.3275 -112.7244 122° Southeast 438 504 35,000  Level Salt Lake Center
05:18PM 42.2619 -112.5839 122° Southeast 444 511 35,000  Level Salt Lake Center
05:19PM 42.1958 -112.4439 122° Southeast 443 510 35,000  Level Salt Lake Center
05:20PM 42.1208 -112.3106 127° Southeast 446 513 35,000  Level Salt Lake Center
05:21PM 42.0456 -112.1756 127° Southeast 451 519 35,000  Level Salt Lake Center
05:22PM 41.9706 -112.0417 127° Southeast 450 518 35,000  Level Salt Lake Center
05:23PM 41.8789 -111.8789 127° Southeast 454 522 35,000  Level Salt Lake Center
05:24PM 41.8014 -111.7444 128° Southeast 455 524 35,000  Level Salt Lake Center
05:25PM 41.7269 -111.6094 126° Southeast 451 519 35,000  Level Salt Lake Center
05:27PM 41.6506 -111.4750 127° Southeast 452 520 35,000  Level Salt Lake Center
05:28PM 41.5731 -111.3425 128° Southeast 452 520 35,000  Level Salt Lake Center
05:29PM 41.4961 -111.2100 128° Southeast 450 518 35,000  Level Salt Lake Center
05:30PM 41.4200 -111.0778 127° Southeast 448 516 35,000  Level Salt Lake Center
05:31PM 41.3325 -110.9250 127° Southeast 446 513 35,000  Level Salt Lake Center
05:32PM 41.2603 -110.8014 128° Southeast 445 512 35,000  Level Salt Lake Center
05:33PM 41.1756 -110.6575 128° Southeast 444 511 35,000  Level Salt Lake Center
05:34PM 41.1039 -110.5344 128° Southeast 443 510 35,000  Level Salt Lake Center
05:35PM 41.0192 -110.3914 128° Southeast 443 510 35,000  Level Salt Lake Center
05:36PM 40.9464 -110.2692 128° Southeast 445 512 35,000  Level Salt Lake Center
05:37PM 40.8617 -110.1258 128° Southeast 445 512 35,000  Level Salt Lake Center
05:38PM 40.7833 -109.9950 128° Southeast 446 513 35,000  Level Salt Lake Center
05:39PM 40.7092 -109.8736 129° Southeast 445 512 35,000  Level Salt Lake Center
05:40PM 40.6364 -109.7517 128° Southeast 443 510 35,000  Level Salt Lake Center
05:41PM 40.5506 -109.6106 129° Southeast 442 509 35,000  Level Salt Lake Center
05:42PM 40.4783 -109.4917 129° Southeast 437 503 35,000  Level Salt Lake Center
05:43PM 40.3933 -109.3522 129° Southeast 438 504 35,000  Level Salt Lake Center
05:44PM 40.3203 -109.2331 129° Southeast 439 505 35,000  Level Salt Lake Center
05:45PM 40.2347 -109.0944 129° Southeast 438 504 35,000  Level Salt Lake Center
05:45PM 40.2100 -109.0533 128° Southeast 438 504 35,000  Level Denver Center
05:46PM 40.1253 -108.9147 129° Southeast 434 499 35,000  Level Denver Center
05:48PM 40.0514 -108.7961 129° Southeast 438 504 35,000  Level Denver Center
05:49PM 39.9769 -108.6778 129° Southeast 438 504 35,000  Level Denver Center
05:50PM 39.8897 -108.5381 129° Southeast 441 507 35,000  Level Denver Center
05:51PM 39.8136 -108.4194 130° Southeast 442 509 35,000  Level Denver Center
05:52PM 39.7242 -108.2797 130° Southeast 453 521 35,000  Level Denver Center
05:53PM 39.6506 -108.1608 129° Southeast 438 504 35,000  Level Denver Center
05:54PM 39.5631 -108.0239 130° Southeast 439 505 35,000  Level Denver Center
05:55PM 39.4867 -107.9050 130° Southeast 445 512 35,000  Level Denver Center
05:56PM 39.3994 -107.7678 129° Southeast 444 511 35,000  Level Denver Center
05:57PM 39.3236 -107.6503 130° Southeast 444 511 35,000  Level Denver Center
05:58PM 39.2475 -107.5350 130° Southeast 441 507 35,000  Level Denver Center
05:59PM 39.1597 -107.4000 130° Southeast 440 506 35,000  Level Denver Center
06:00PM 39.0847 -107.2825 129° Southeast 442 509 35,000  Level Denver Center
06:01PM 39.0008 -107.1481 129° Southeast 433 498 35,000  Level Denver Center
06:02PM 38.9289 -107.0314 128° Southeast 435 501 35,000  Level Denver Center
06:03PM 38.8467 -106.9031 129° Southeast 425 489 35,000  Level Denver Center
06:04PM 38.7731 -106.7847 129° Southeast 425 489 35,000  Level Denver Center
06:05PM 38.6989 -106.6686 129° Southeast 420 483 35,000  Level Denver Center
06:06PM 38.6250 -106.5531 129° Southeast 420 483 35,000  Level Denver Center
06:07PM 38.5511 -106.4386 130° Southeast 418 481 35,000  Level Denver Center
06:08PM 38.4772 -106.3211 129° Southeast 424 488 35,000  Level Denver Center
06:09PM 38.3858 -106.1811 130° Southeast 428 493 35,000  Level Denver Center
06:10PM 38.3150 -106.0625 127° Southeast 428 493 35,000  Level Denver Center
06:11PM 38.2294 -105.9342 130° Southeast 425 489 35,000  Level Denver Center
06:12PM 38.1564 -105.8236 130° Southeast 426 490 35,000  Level Denver Center
06:13PM 38.0728 -105.6931 129° Southeast 426 490 35,000  Level Denver Center
06:14PM 37.9994 -105.5833 130° Southeast 425 489 35,000  Level Denver Center
06:15PM 37.9261 -105.4725 130° Southeast 427 491 35,000  Level Denver Center
06:16PM 37.8367 -105.3411 131° Southeast 441 507 35,000  Level Denver Center
06:18PM 37.7606 -105.2283 130° Southeast 442 509 35,000  Level Denver Center
06:19PM 37.6700 -105.0964 131° Southeast 443 510 35,000  Level Denver Center
06:20PM 37.5933 -104.9819 130° Southeast 446 513 35,000  Level Denver Center
06:21PM 37.5036 -104.8506 131° Southeast 444 511 35,000  Level Denver Center
06:22PM 37.4253 -104.7361 131° Southeast 450 518 35,000  Level Denver Center
06:23PM 37.3342 -104.6053 131° Southeast 448 516 35,000  Level Denver Center
06:24PM 37.2561 -104.4914 131° Southeast 450 518 35,000  Level Denver Center
06:25PM 37.1642 -104.3597 131° Southeast 452 520 35,000  Level Denver Center
06:25PM 37.1108 -104.2819 131° Southeast 456 525 35,000  Level Albuquerque Center
06:26PM 37.0308 -104.1664 131° Southeast 460 529 35,000  Level Albuquerque Center
06:27PM 36.9653 -104.0347 122° Southeast 468 539 35,000  Level Albuquerque Center
06:28PM 36.8878 -103.8831 123° Southeast 466 536 35,000  Level Albuquerque Center
06:29PM 36.8206 -103.7533 123° Southeast 466 536 35,000  Level Albuquerque Center
06:30PM 36.7428 -103.6008 122° Southeast 468 539 35,000  Level Albuquerque Center
06:32PM 36.6756 -103.4700 123° Southeast 469 540 35,000  Level Albuquerque Center
06:33PM 36.5981 -103.3169 122° Southeast 473 544 35,000  Level Albuquerque Center
06:34PM 36.5253 -103.1756 123° Southeast 478 550 35,000  Level Albuquerque Center
06:35PM 36.4519 -103.0364 123° Southeast 478 550 35,000  Level Albuquerque Center
06:36PM 36.3800 -102.8981 123° Southeast 475 547 35,000  Level Albuquerque Center
06:37PM 36.3031 -102.7517 123° Southeast 475 547 35,000  Level Albuquerque Center
06:38PM 36.2325 -102.6153 123° Southeast 471 542 35,000  Level Albuquerque Center
06:39PM 36.1611 -102.4811 123° Southeast 468 539 35,000  Level Albuquerque Center
06:40PM 36.0911 -102.3469 123° Southeast 467 537 35,000  Level Albuquerque Center
06:41PM 36.0047 -102.1875 124° Southeast 464 534 35,000  Level Albuquerque Center
06:42PM 35.9353 -102.0553 123° Southeast 462 532 35,000  Level Albuquerque Center
06:43PM 35.8642 -101.9219 123° Southeast 463 533 35,000  Level Albuquerque Center
06:44PM 35.7925 -101.7883 123° Southeast 466 536 35,000  Level Albuquerque Center
06:45PM 35.7356 -101.6433 116° Southeast 477 549 35,000  Level Albuquerque Center
06:46PM 35.6978 -101.4872 107° East 474 545 35,000  Level Albuquerque Center
06:47PM 35.6597 -101.3306 107° East 475 547 35,000  Level Albuquerque Center
06:48PM 35.6214 -101.1731 107° East 477 549 35,000  Level Albuquerque Center
06:49PM 35.5847 -101.0175 106° East 475 547 35,000  Level Albuquerque Center
06:50PM 35.5439 -100.8308 105° East 472 543 35,000  Level Albuquerque Center
06:51PM 35.5094 -100.6744 105° East 473 544 35,000  Level Albuquerque Center
06:52PM 35.4781 -100.5319 105° East 475 547 35,000  Level Albuquerque Center
06:53PM 35.4422 -100.3733 105° East 481 554 35,000  Level Albuquerque Center
06:54PM 35.3972 -100.1825 106° East 485 558 35,000  Level Albuquerque Center
06:55PM 35.3269 -100.0450 122° Southeast 479 551 35,000  Level Albuquerque Center
06:56PM 35.2453 -99.9128 127° Southeast 484 557 35,000  Level Albuquerque Center
06:57PM 35.1389 -99.8203 145° Southeast 473 544 35,000  Level Albuquerque Center
06:58PM 35.0247 -99.7525 154° Southeast 463 533 35,000  Level Albuquerque Center
06:59PM 34.9119 -99.6897 155° Southeast 451 519 35,000 -60 Level Albuquerque Center
07:00PM 34.8108 -99.6314 155° Southeast 453 521 34,900 -360 Descending Fort Worth Center
07:01PM 34.7033 -99.5706 155° Southeast 443 510 34,400 -540 Descending Fort Worth Center
07:02PM 34.5917 -99.5097 156° South 438 504 33,900 -600 Descending Fort Worth Center
07:03PM 34.4844 -99.4367 151° Southeast 438 504 33,300 -540 Descending Fort Worth Center
07:04PM 34.4031 -99.3089 128° Southeast 443 510 32,900 -600 Descending Fort Worth Center
07:05PM 34.3381 -99.1817 122° Southeast 449 517 32,100 -1,080 Descending Fort Worth Center
07:06PM 34.2606 -99.0519 126° Southeast 444 511 30,800 -1,260 Descending Fort Worth Center
07:07PM 34.1933 -98.9350 125° Southeast 444 511 29,600 -1,200 Descending Fort Worth Center
07:08PM 34.1217 -98.8158 126° Southeast 438 504 28,400 -900 Descending Fort Worth Center
07:09PM 34.0500 -98.6919 125° Southeast 437 503 27,800 -720 Descending Fort Worth Center
07:10PM 33.9781 -98.5731 126° Southeast 437 503 27,000 -960 Descending Fort Worth Center
07:11PM 33.9122 -98.4572 124° Southeast 447 514 25,900 -1,680 Descending Fort Worth Center
07:12PM 33.8381 -98.3286 125° Southeast 441 507 23,700 -2,100 Descending Fort Worth Center
07:13PM 33.7700 -98.2156 126° Southeast 430 495 21,800 -1,920 Descending Fort Worth Center
07:14PM 33.7061 -98.1075 125° Southeast 416 479 19,900 -2,220 Descending Fort Worth Center
07:15PM 33.6503 -98.0122 125° Southeast 402 463 17,400 -2,220 Descending Fort Worth Center
07:16PM 33.5900 -97.9097 125° Southeast 387 445 15,500 -1,800 Descending Fort Worth Center
07:17PM 33.5236 -97.8097 129° Southeast 381 438 13,800 -1,800 Descending Fort Worth Center
07:18PM 33.4489 -97.7222 136° Southeast 354 407 11,900 -1,380 Descending Fort Worth Center
07:19PM 33.3906 -97.6497 134° Southeast 336 387 11,100 -1,080 Descending Fort Worth Center
07:20PM 33.3300 -97.5800 136° Southeast 315 362 9,800 -1,440 Descending Fort Worth Center
07:21PM 33.2675 -97.5003 133° Southeast 304 350 8,300 -1,380 Descending Fort Worth Center
07:22PM 33.2175 -97.4383 134° Southeast 304 350 7,100 -1,200 Descending Fort Worth Center
07:23PM 33.1569 -97.3639 134° Southeast 299 344 5,900 -1,020 Descending Fort Worth Center
07:24PM 33.1150 -97.3042 130° Southeast 276 318 5,100 -720 Descending Fort Worth Center
07:25PM 33.0650 -97.2425 134° Southeast 244 281 4,500 -660 Descending Fort Worth Center
07:26PM 33.0211 -97.2003 141° Southeast 221 254 3,800 -780 Descending Fort Worth Center
07:27PM 32.9814 -97.1583 138° Southeast 191 220 3,000 -1,020 Descending Fort Worth Center
07:28PM 32.9500 -97.1286 142° Southeast 161 185 1,800 -1,080 Descending Fort Worth Center
07:29PM 32.9164 -97.0942 139° Southeast 151 174 900 -600 Descending Fort Worth Center
07:30PM 32.8892 -97.0669 140° Southeast 151 174 700 -240 Descending Fort Worth Center